createdAt,value
2019-04-29T00:01:40.183Z,5.87
2019-04-29T00:04:10.113Z,4.27
2019-04-29T00:06:40.132Z,4.03
2019-04-29T00:09:15.644Z,4.07
2019-04-29T00:11:45.679Z,5.00
2019-04-29T00:14:15.560Z,5.47
2019-04-29T00:16:57.838Z,4.67
2019-04-29T00:19:36.425Z,4.70
2019-04-29T00:22:06.601Z,4.90
2019-04-29T00:24:36.546Z,5.63
2019-04-29T00:27:06.558Z,5.37
2019-04-29T00:29:36.607Z,5.73
2019-04-29T00:32:07.212Z,5.70
2019-04-29T00:34:37.149Z,5.47
2019-04-29T00:37:33.330Z,5.87
2019-04-29T00:40:25.055Z,5.90
2019-04-29T00:43:01.853Z,5.30
2019-04-29T00:45:31.790Z,6.17
2019-04-29T00:48:01.735Z,6.10
2019-04-29T00:50:31.604Z,5.87
2019-04-29T00:53:01.560Z,6.37
2019-04-29T00:55:32.941Z,6.03
2019-04-29T00:58:02.913Z,6.43
2019-04-29T01:00:37.794Z,5.90
2019-04-29T01:03:07.917Z,6.67
2019-04-29T01:05:38.469Z,6.50
2019-04-29T01:08:08.615Z,6.03
2019-04-29T01:10:38.535Z,6.43
2019-04-29T01:13:08.663Z,6.83
2019-04-29T01:15:38.694Z,6.27
2019-04-29T01:18:08.731Z,7.03
2019-04-29T01:20:38.601Z,6.43
2019-04-29T01:23:08.848Z,7.27
2019-04-29T01:25:38.720Z,6.57
2019-04-29T01:28:29.070Z,6.90
2019-04-29T01:31:04.508Z,7.23
2019-04-29T01:33:34.539Z,8.17
2019-04-29T01:36:18.963Z,8.27
2019-04-29T01:38:50.128Z,7.57
2019-04-29T01:41:22.326Z,9.40
2019-04-29T01:44:11.171Z,8.57
2019-04-29T01:46:41.046Z,10.27
2019-04-29T01:49:10.934Z,9.43
2019-04-29T01:51:40.892Z,10.50
2019-04-29T01:54:10.881Z,9.93
2019-04-29T01:56:41.068Z,11.03
2019-04-29T01:59:10.943Z,9.47
2019-04-29T02:01:40.844Z,10.37
2019-04-29T02:04:11.157Z,11.07
2019-04-29T02:06:41.051Z,11.10
2019-04-29T02:09:15.683Z,10.53
2019-04-29T02:11:45.567Z,12.33
2019-04-29T02:14:15.589Z,11.40
2019-04-29T02:16:45.489Z,12.30
2019-04-29T02:19:15.374Z,12.33
2019-04-29T02:22:04.214Z,12.90
2019-04-29T02:24:35.617Z,12.83
2019-04-29T02:27:05.878Z,13.60
2019-04-29T02:29:35.874Z,13.53
2019-04-29T02:32:05.959Z,12.53
2019-04-29T02:34:35.872Z,13.40
2019-04-29T02:37:07.507Z,12.33
2019-04-29T02:39:45.344Z,13.73
2019-04-29T02:42:43.226Z,13.53
2019-04-29T02:45:21.668Z,13.57
2019-04-29T02:47:51.542Z,13.27
2019-04-29T02:50:21.436Z,14.10
2019-04-29T02:52:51.322Z,15.10
2019-04-29T02:55:29.738Z,14.67
2019-04-29T02:58:24.725Z,14.33
2019-04-29T03:01:13.728Z,13.13
2019-04-29T03:03:54.076Z,15.23
2019-04-29T03:06:24.110Z,14.73
2019-04-29T03:08:54.000Z,15.73
2019-04-29T03:11:25.589Z,15.17
2019-04-29T03:13:55.582Z,15.87
2019-04-29T03:16:25.597Z,15.27
2019-04-29T03:19:00.245Z,16.33
2019-04-29T03:21:37.800Z,15.20
2019-04-29T03:24:07.661Z,16.60
2019-04-29T03:26:37.562Z,16.73
2019-04-29T03:29:22.227Z,17.80
2019-04-29T03:31:54.284Z,17.57
2019-04-29T03:34:26.458Z,17.00
2019-04-29T03:36:56.155Z,19.97
2019-04-29T03:39:26.166Z,19.10
2019-04-29T03:41:56.106Z,17.70
2019-04-29T03:44:25.984Z,17.63
2019-04-29T03:46:55.884Z,17.90
2019-04-29T03:49:25.733Z,20.00
2019-04-29T03:51:56.190Z,18.10
2019-04-29T03:54:26.062Z,20.17
2019-04-29T03:56:55.943Z,18.87
2019-04-29T03:59:25.838Z,20.60
2019-04-29T04:02:11.872Z,18.77
2019-04-29T04:05:01.293Z,20.90
2019-04-29T04:07:38.798Z,19.43
2019-04-29T04:10:10.264Z,19.27
2019-04-29T04:12:40.175Z,20.77
2019-04-29T04:15:10.517Z,23.13
2019-04-29T04:17:46.020Z,22.80
2019-04-29T04:20:16.142Z,23.47
2019-04-29T04:22:47.020Z,22.33
2019-04-29T04:25:17.623Z,23.43
2019-04-29T04:27:48.202Z,23.80
2019-04-29T04:30:20.058Z,24.70
2019-04-29T04:32:49.950Z,22.73
2019-04-29T04:35:19.888Z,23.23
2019-04-29T04:37:49.835Z,23.30
2019-04-29T04:40:25.885Z,21.90
2019-04-29T04:42:55.805Z,25.03
2019-04-29T04:45:25.678Z,23.77
2019-04-29T04:47:55.565Z,26.63
2019-04-29T04:50:25.447Z,25.43
2019-04-29T04:52:55.340Z,24.53
2019-04-29T04:55:28.155Z,24.17
2019-04-29T04:57:58.087Z,24.57
2019-04-29T05:00:29.707Z,26.90
2019-04-29T05:02:59.681Z,27.47
2019-04-29T05:05:29.630Z,27.53
2019-04-29T05:07:59.631Z,27.10
2019-04-29T05:10:29.741Z,37.07
2019-04-29T05:12:59.709Z,27.30
2019-04-29T05:15:29.606Z,31.60
2019-04-29T05:17:59.557Z,34.87
2019-04-29T05:20:29.448Z,24.23
2019-04-29T05:22:59.365Z,26.77
2019-04-29T05:25:34.657Z,25.03
2019-04-29T05:28:05.261Z,30.23
2019-04-29T05:30:35.164Z,28.93
2019-04-29T05:33:05.231Z,25.83
2019-04-29T05:35:44.772Z,49.93
2019-04-29T05:38:20.412Z,37.43
2019-04-29T05:40:51.480Z,30.10
2019-04-29T05:43:26.957Z,89.83
2019-04-29T05:46:07.791Z,39.33
2019-04-29T05:48:37.711Z,39.40
2019-04-29T05:51:27.343Z,32.53
2019-04-29T05:53:58.501Z,40.03
2019-04-29T05:56:28.547Z,41.67
2019-04-29T05:58:58.584Z,31.93
2019-04-29T06:01:30.595Z,46.07
2019-04-29T06:04:00.553Z,37.87
2019-04-29T06:06:30.500Z,31.60
2019-04-29T06:09:00.414Z,39.60
2019-04-29T06:11:30.352Z,31.77
2019-04-29T06:14:00.386Z,33.17
2019-04-29T06:16:30.280Z,28.50
2019-04-29T06:19:03.107Z,27.23
2019-04-29T06:21:31.799Z,23.23
2019-04-29T06:24:04.205Z,24.63
2019-04-29T06:26:33.813Z,26.90
2019-04-29T06:29:05.917Z,24.40
2019-04-29T06:31:35.691Z,28.83
2019-04-29T06:34:06.556Z,23.53
2019-04-29T06:36:36.683Z,29.83
2019-04-29T06:39:07.779Z,24.90
2019-04-29T06:41:40.509Z,23.60
2019-04-29T06:44:16.030Z,27.20
2019-04-29T06:46:41.086Z,26.17
2019-04-29T06:49:11.044Z,23.17
2019-04-29T06:51:40.956Z,23.73
2019-04-29T06:54:10.926Z,23.37
2019-04-29T06:56:40.946Z,22.43
2019-04-29T06:59:12.058Z,19.60
2019-04-29T07:01:42.556Z,21.90
2019-04-29T07:04:12.478Z,23.27
2019-04-29T07:06:56.435Z,20.87
2019-04-29T07:09:14.017Z,19.50
2019-04-29T07:11:44.014Z,21.47
2019-04-29T07:14:13.898Z,18.07
2019-04-29T07:16:43.877Z,17.87
2019-04-29T07:19:13.822Z,17.77
2019-04-29T07:21:46.879Z,10.73
2019-04-29T07:24:15.606Z,11.00
2019-04-29T07:26:45.656Z,11.43
2019-04-29T07:29:15.533Z,15.37
2019-04-29T07:31:45.433Z,14.83
2019-04-29T07:34:15.320Z,14.40
2019-04-29T07:36:45.629Z,12.80
2019-04-29T07:39:15.612Z,13.23
2019-04-29T07:41:45.643Z,12.23
2019-04-29T07:44:18.411Z,14.03
2019-04-29T07:46:58.263Z,12.33
2019-04-29T07:49:24.221Z,16.87
2019-04-29T07:51:54.708Z,19.50
2019-04-29T07:54:24.710Z,20.70
2019-04-29T07:56:54.590Z,21.77
2019-04-29T07:59:24.477Z,22.47
2019-04-29T08:01:55.714Z,20.27
2019-04-29T08:04:26.552Z,22.27
2019-04-29T08:06:57.089Z,21.43
2019-04-29T08:09:27.219Z,21.33
2019-04-29T08:11:57.912Z,21.30
2019-04-29T08:14:30.761Z,23.17
2019-04-29T08:17:01.324Z,22.63
2019-04-29T08:19:31.658Z,26.87
2019-04-29T08:22:01.832Z,24.47
2019-04-29T08:24:31.813Z,22.33
2019-04-29T08:27:02.137Z,22.33
2019-04-29T08:29:35.853Z,20.07
2019-04-29T08:32:03.678Z,20.73
2019-04-29T08:34:33.603Z,21.53
2019-04-29T08:37:03.656Z,19.30
2019-04-29T08:39:33.630Z,24.50
2019-04-29T08:42:09.001Z,25.20
2019-04-29T08:44:59.644Z,21.23
2019-04-29T08:47:31.806Z,25.47
2019-04-29T08:50:02.212Z,22.50
2019-04-29T08:52:32.168Z,28.00
2019-04-29T08:55:02.254Z,18.60
2019-04-29T08:57:36.538Z,28.23
2019-04-29T09:00:05.242Z,23.07
2019-04-29T09:02:35.817Z,25.57
2019-04-29T09:05:11.409Z,25.53
2019-04-29T09:07:38.810Z,25.83
2019-04-29T09:10:10.267Z,25.37
2019-04-29T09:12:40.523Z,23.30
2019-04-29T09:15:11.907Z,25.13
2019-04-29T09:17:41.879Z,26.57
2019-04-29T09:20:12.607Z,23.97
2019-04-29T09:22:47.286Z,22.03
2019-04-29T09:25:31.949Z,22.67
2019-04-29T09:28:06.085Z,23.30
2019-04-29T09:30:38.620Z,25.63
2019-04-29T09:33:08.730Z,23.07
2019-04-29T09:35:40.583Z,22.60
2019-04-29T09:38:10.891Z,20.63
2019-04-29T09:40:45.979Z,24.77
2019-04-29T09:43:47.311Z,28.57
2019-04-29T09:46:21.912Z,22.97
2019-04-29T09:48:51.856Z,23.37
2019-04-29T09:51:22.821Z,22.00
2019-04-29T09:53:53.545Z,27.30
2019-04-29T09:56:23.484Z,24.77
2019-04-29T09:59:12.685Z,28.40
2019-04-29T10:01:50.534Z,24.20
2019-04-29T10:04:28.548Z,21.23
2019-04-29T10:06:58.960Z,26.53
2019-04-29T10:09:29.043Z,25.90
2019-04-29T10:11:58.995Z,25.63
2019-04-29T10:14:29.059Z,25.03
2019-04-29T10:17:19.458Z,24.83
2019-04-29T10:20:04.411Z,24.37
2019-04-29T10:22:34.991Z,21.90
2019-04-29T10:25:05.963Z,23.60
2019-04-29T10:27:35.989Z,23.67
2019-04-29T10:30:07.400Z,24.87
2019-04-29T10:32:37.832Z,22.73
2019-04-29T10:35:10.726Z,22.60
2019-04-29T10:37:40.993Z,22.30
2019-04-29T10:40:31.878Z,22.00
2019-04-29T10:43:36.030Z,21.63
2019-04-29T10:46:24.440Z,23.00
2019-04-29T10:49:05.304Z,24.23
2019-04-29T10:51:35.580Z,22.93
2019-04-29T10:54:06.034Z,24.07
2019-04-29T10:56:39.460Z,26.20
2019-04-29T10:59:11.119Z,23.77
2019-04-29T11:02:34.323Z,25.33
2019-04-29T11:05:20.547Z,21.80
2019-04-29T11:07:52.411Z,24.37
2019-04-29T11:10:26.757Z,23.53
2019-04-29T11:12:57.338Z,21.43
2019-04-29T11:15:38.154Z,24.47
2019-04-29T11:18:08.578Z,23.00
2019-04-29T11:20:38.520Z,20.63
2019-04-29T11:23:18.130Z,27.97
2019-04-29T11:26:10.223Z,20.43
2019-04-29T11:28:41.869Z,24.57
2019-04-29T11:31:13.997Z,22.73
2019-04-29T11:33:56.826Z,26.07
2019-04-29T11:36:26.783Z,24.77
2019-04-29T11:38:56.914Z,22.43
2019-04-29T11:41:30.640Z,20.67
2019-04-29T11:44:00.716Z,20.77
2019-04-29T11:46:31.421Z,22.10
2019-04-29T11:49:03.044Z,20.10
2019-04-29T11:51:48.413Z,22.63
2019-04-29T11:54:12.316Z,21.47
2019-04-29T11:56:40.605Z,23.57
2019-04-29T11:59:29.414Z,19.70
2019-04-29T12:02:10.888Z,22.80
2019-04-29T12:04:44.464Z,21.20
2019-04-29T12:07:14.368Z,22.37
2019-04-29T12:09:44.594Z,20.33
2019-04-29T12:12:15.770Z,21.77
2019-04-29T12:14:55.216Z,22.10
2019-04-29T12:17:38.036Z,22.38
2019-04-29T12:20:27.136Z,19.30
2019-04-29T12:22:57.024Z,21.33
2019-04-29T12:25:28.980Z,22.80
2019-04-29T12:28:01.566Z,26.43
2019-04-29T12:30:36.355Z,21.40
2019-04-29T12:33:11.846Z,17.40
2019-04-29T12:35:51.862Z,20.53
2019-04-29T12:38:40.136Z,18.20
2019-04-29T12:41:21.065Z,21.90
2019-04-29T12:43:59.414Z,17.27
2019-04-29T12:46:40.727Z,21.53
2019-04-29T12:49:13.575Z,20.37
2019-04-29T12:51:42.394Z,19.37
2019-04-29T12:54:12.433Z,18.07
2019-04-29T12:56:47.400Z,22.20
2019-04-29T12:59:14.660Z,19.20
2019-04-29T13:02:02.518Z,18.77
2019-04-29T13:04:54.924Z,20.70
2019-04-29T13:07:50.752Z,17.43
2019-04-29T13:10:29.817Z,22.77
2019-04-29T13:12:59.844Z,20.80
2019-04-29T13:15:39.482Z,19.90
2019-04-29T13:18:22.801Z,21.73
2019-04-29T13:20:50.456Z,17.10
2019-04-29T13:23:33.226Z,19.50
2019-04-29T13:25:50.951Z,21.07
2019-04-29T13:28:29.840Z,20.27
2019-04-29T13:30:56.729Z,17.90
2019-04-29T13:33:25.290Z,18.53
2019-04-29T13:35:55.162Z,22.47
2019-04-29T13:38:25.097Z,19.10
2019-04-29T13:41:12.004Z,17.60
2019-04-29T13:43:27.231Z,18.03
2019-04-29T13:46:10.390Z,18.37
2019-04-29T13:49:12.317Z,16.17
2019-04-29T13:51:35.975Z,13.57
2019-04-29T13:54:06.086Z,18.67
2019-04-29T13:56:55.697Z,20.43
2019-04-29T13:59:10.567Z,17.20
2019-04-29T14:02:00.071Z,17.80
2019-04-29T14:04:36.969Z,19.33
2019-04-29T14:07:06.982Z,18.80
2019-04-29T14:09:39.199Z,16.63
2019-04-29T14:12:46.634Z,16.70
2019-04-29T14:14:40.459Z,17.93
2019-04-29T14:17:25.305Z,19.00
2019-04-29T14:19:44.023Z,16.03
2019-04-29T14:22:22.050Z,14.03
2019-04-29T14:24:46.987Z,17.80
2019-04-29T14:27:24.434Z,15.47
2019-04-29T14:29:51.474Z,17.77
2019-04-29T14:32:33.310Z,16.97
2019-04-29T14:34:59.031Z,17.67
2019-04-29T14:37:29.440Z,15.37
2019-04-29T14:40:02.797Z,12.53
2019-04-29T14:42:41.625Z,13.73
2019-04-29T14:45:33.293Z,15.10
2019-04-29T14:48:26.725Z,15.67
2019-04-29T14:50:56.592Z,12.33
2019-04-29T14:53:26.490Z,13.87
2019-04-29T14:55:56.456Z,15.03
2019-04-29T14:58:26.311Z,14.97
2019-04-29T15:01:10.143Z,14.00
2019-04-29T15:03:57.900Z,13.77
2019-04-29T15:06:28.921Z,13.63
2019-04-29T15:08:59.280Z,13.40
2019-04-29T15:11:34.886Z,15.03
2019-04-29T15:14:25.789Z,9.40
2019-04-29T15:17:03.305Z,13.07
2019-04-29T15:19:58.230Z,18.13
2019-04-29T15:22:32.178Z,14.23
2019-04-29T15:25:02.071Z,9.70
2019-04-29T15:27:32.231Z,15.83
2019-04-29T15:30:02.210Z,11.70
2019-04-29T15:32:32.146Z,9.57
2019-04-29T15:35:02.527Z,12.47
2019-04-29T15:37:33.687Z,17.17
2019-04-29T15:40:04.205Z,8.73
2019-04-29T15:42:37.958Z,9.40
2019-04-29T15:45:06.969Z,8.20
2019-04-29T15:47:37.029Z,9.73
2019-04-29T15:50:18.266Z,13.00
2019-04-29T15:52:39.670Z,10.67
2019-04-29T15:55:09.863Z,10.27
2019-04-29T15:57:40.270Z,12.40
2019-04-29T16:00:21.646Z,7.90
2019-04-29T16:02:44.055Z,10.87
2019-04-29T16:05:30.003Z,7.07
2019-04-29T16:08:08.937Z,8.10
2019-04-29T16:10:51.746Z,7.37
2019-04-29T16:13:22.669Z,8.43
2019-04-29T16:15:52.220Z,10.53
2019-04-29T16:18:22.304Z,8.73
2019-04-29T16:20:54.123Z,9.57
2019-04-29T16:23:23.975Z,7.73
2019-04-29T16:25:54.500Z,8.93
2019-04-29T16:28:31.587Z,8.73
2019-04-29T16:30:56.262Z,9.63
2019-04-29T16:33:26.347Z,11.20
2019-04-29T16:36:04.386Z,7.73
2019-04-29T16:38:28.224Z,6.87
2019-04-29T16:41:12.448Z,9.83
2019-04-29T16:43:45.166Z,4.93
2019-04-29T16:48:51.045Z,9.40
2019-04-29T16:51:21.344Z,9.00
2019-04-29T16:53:51.370Z,6.50
2019-04-29T16:56:21.868Z,8.87
2019-04-29T16:58:51.902Z,8.67
2019-04-29T17:01:22.611Z,6.13
2019-04-29T17:03:52.673Z,7.47
2019-04-29T17:06:22.829Z,7.47
2019-04-29T17:09:23.959Z,4.97
2019-04-29T17:11:56.046Z,8.10
2019-04-29T17:14:26.576Z,8.77
2019-04-29T17:16:56.691Z,9.67
2019-04-29T17:19:26.599Z,10.10
2019-04-29T17:22:23.272Z,6.83
2019-04-29T17:24:28.411Z,7.93
2019-04-29T17:27:06.955Z,6.03
2019-04-29T17:30:03.559Z,8.13
2019-04-29T17:32:46.858Z,9.00
2019-04-29T17:35:14.348Z,10.67
2019-04-29T17:35:21.141Z,5.20
2019-04-29T17:37:45.602Z,7.40
2019-04-29T17:40:19.399Z,6.93
2019-04-29T17:42:53.859Z,7.30
2019-04-29T17:45:31.613Z,6.33
2019-04-29T17:48:12.511Z,6.30
2019-04-29T17:50:48.088Z,6.13
2019-04-29T17:53:25.487Z,4.73
2019-04-29T17:56:01.515Z,4.93
2019-04-29T17:58:36.109Z,8.40
2019-04-29T18:01:25.914Z,3.47
2019-04-29T18:04:16.730Z,6.97
2019-04-29T18:06:48.807Z,5.20
2019-04-29T18:09:27.880Z,4.87
2019-04-29T18:11:58.938Z,7.87
2019-04-29T18:14:36.565Z,6.63
2019-04-29T18:17:00.723Z,7.67
2019-04-29T18:19:37.772Z,8.30
2019-04-29T18:22:25.711Z,4.13
2019-04-29T18:25:01.250Z,7.37
2019-04-29T18:27:34.459Z,4.77
2019-04-29T18:30:07.149Z,5.00
2019-04-29T18:32:42.090Z,4.40
2019-04-29T18:35:09.495Z,5.33
2019-04-29T18:37:39.406Z,5.33
2019-04-29T18:40:10.216Z,5.67
2019-04-29T18:42:43.255Z,7.57
2019-04-29T18:45:12.643Z,7.27
2019-04-29T18:47:42.585Z,3.97
2019-04-29T18:50:13.306Z,5.27
2019-04-29T18:52:43.184Z,5.07
2019-04-29T18:55:13.209Z,6.97
2019-04-29T18:57:43.102Z,6.07
2019-04-29T19:00:19.058Z,5.13
2019-04-29T19:02:52.319Z,7.97
2019-04-29T19:05:26.403Z,9.03
2019-04-29T19:07:57.043Z,6.37
2019-04-29T19:10:32.923Z,7.43
2019-04-29T19:13:00.244Z,4.00
2019-04-29T19:15:28.957Z,6.37
2019-04-29T19:18:01.814Z,6.57
2019-04-29T19:20:30.476Z,6.27
2019-04-29T19:23:07.781Z,4.67
2019-04-29T19:25:32.160Z,4.30
2019-04-29T19:28:11.961Z,5.57
2019-04-29T19:30:35.527Z,5.47
2019-04-29T19:33:05.943Z,5.23
2019-04-29T19:35:38.693Z,5.37
2019-04-29T19:38:12.420Z,4.97
2019-04-29T19:40:42.387Z,6.17
2019-04-29T19:43:17.423Z,4.23
2019-04-29T19:45:44.648Z,6.03
2019-04-29T19:48:16.135Z,4.97
2019-04-29T19:50:50.167Z,5.87
2019-04-29T19:53:17.957Z,6.17
2019-04-29T19:55:47.842Z,7.43
2019-04-29T19:58:22.935Z,7.67
2019-04-29T20:00:49.830Z,5.13
2019-04-29T20:03:23.839Z,4.30
2019-04-29T20:06:07.995Z,8.37
2019-04-29T20:08:50.196Z,5.00
2019-04-29T20:11:11.282Z,5.30
2019-04-29T20:13:33.764Z,4.33
2019-04-29T20:16:40.554Z,4.50
2019-04-29T20:19:20.443Z,4.67
2019-04-29T20:21:47.403Z,3.97
2019-04-29T20:24:22.816Z,6.33
2019-04-29T20:26:50.379Z,5.00
2019-04-29T20:29:21.311Z,8.10
2019-04-29T20:31:53.947Z,4.83
2019-04-29T20:34:24.608Z,7.87
2019-04-29T20:36:55.755Z,7.10
2019-04-29T20:39:26.481Z,6.87
2019-04-29T20:42:01.097Z,6.03
2019-04-29T20:44:29.842Z,4.60
2019-04-29T20:47:16.512Z,8.03
2019-04-29T20:49:36.007Z,5.37
2019-04-29T20:52:25.911Z,3.63
2019-04-29T20:55:00.734Z,9.03
2019-04-29T20:57:28.495Z,6.80
2019-04-29T20:59:58.516Z,5.43
2019-04-29T21:02:34.183Z,3.83
2019-04-29T21:05:00.237Z,5.17
2019-04-29T21:07:30.712Z,9.33
2019-04-29T21:10:06.735Z,6.43
2019-04-29T21:12:41.503Z,6.03
2019-04-29T21:15:17.663Z,4.73
2019-04-29T21:17:47.637Z,5.30
2019-04-29T21:20:17.668Z,9.60
2019-04-29T21:22:47.580Z,5.87
2019-04-29T21:25:17.540Z,5.70
2019-04-29T21:27:48.596Z,9.13
2019-04-29T21:30:19.153Z,7.57
2019-04-29T21:32:49.118Z,8.60
2019-04-29T21:35:38.754Z,5.20
2019-04-29T21:38:28.365Z,4.57
2019-04-29T21:41:03.988Z,7.37
2019-04-29T21:43:36.592Z,7.13
2019-04-29T21:46:06.814Z,6.47
2019-04-29T21:48:37.500Z,6.37
2019-04-29T21:51:11.228Z,4.60
2019-04-29T21:53:40.394Z,4.87
2019-04-29T21:56:10.430Z,6.83
2019-04-29T21:58:41.450Z,6.80
2019-04-29T22:01:12.411Z,7.20
2019-04-29T22:03:42.301Z,3.93
2019-04-29T22:06:12.284Z,5.50
2019-04-29T22:08:42.166Z,5.60
2019-04-29T22:11:12.120Z,7.07
2019-04-29T22:13:42.011Z,4.87
2019-04-29T22:16:15.779Z,6.90
2019-04-29T22:18:44.601Z,6.20
2019-04-29T22:21:21.983Z,5.67
2019-04-29T22:23:51.031Z,6.33
2019-04-29T22:26:23.418Z,7.57
2019-04-29T22:28:53.217Z,4.63
2019-04-29T22:31:26.952Z,6.03
2019-04-29T22:33:55.291Z,5.33
2019-04-29T22:36:26.046Z,7.53
2019-04-29T22:38:55.936Z,6.53
2019-04-29T22:41:48.691Z,5.23
2019-04-29T22:44:21.771Z,5.40
2019-04-29T22:46:50.080Z,7.57
2019-04-29T22:49:27.204Z,10.00
2019-04-29T22:51:54.540Z,6.67
2019-04-29T22:54:24.614Z,6.30
2019-04-29T22:56:56.600Z,9.23
2019-04-29T22:59:27.451Z,7.73
2019-04-29T23:01:57.977Z,5.27
2019-04-29T23:04:27.844Z,6.40
2019-04-29T23:06:57.735Z,6.10
2019-04-29T23:09:27.617Z,9.17
2019-04-29T23:11:57.686Z,7.03
2019-04-29T23:14:27.907Z,6.50
2019-04-29T23:16:57.817Z,5.33
2019-04-29T23:19:27.769Z,7.27
2019-04-29T23:22:22.123Z,5.27
2019-04-29T23:25:05.591Z,6.20
2019-04-29T23:27:36.154Z,7.13
2019-04-29T23:30:07.755Z,5.33
2019-04-29T23:32:39.461Z,8.73
2019-04-29T23:35:10.821Z,8.07
2019-04-29T23:37:41.051Z,7.57
2019-04-29T23:40:11.320Z,6.80
2019-04-29T23:42:43.649Z,6.40
2019-04-29T23:45:20.780Z,4.90
2019-04-29T23:47:46.949Z,8.03
2019-04-29T23:50:21.030Z,5.67
2019-04-29T23:52:52.061Z,6.10
2019-04-29T23:55:27.386Z,7.90
2019-04-29T23:58:12.385Z,7.37
